LiveATC.Net - Listen to live air traffic control over the Internet!


ICAO: KFSM  IATA: FSM   Airport: Fort Smith Regional Airport
City: Fort Smith   State/Province: Arkansas
Country: United States   Continent: North America
KFSM METAR Weather: KFSM 061053Z 08003KT 10SM CLR 24/21 A2993 RMK AO2 SLP128 T02440211
KFSM Flight Activity (FlightAware)
KFSM Airport Info   (iFlightPlanner)
KFSM VFR Sectional Chart   (iFlightPlanner) 
KFSM IFR Low Altitude Chart   (iFlightPlanner) 
KFSM IFR High Altitude Chart   (iFlightPlanner) 

KFSM Gnd/Twr/App
Feed Status: DOWN
Last heard on: 2022-07-06 02:13:39 (0 days 9 hours 13 minutes ago)
Archive Access: KFSM Gnd/Twr/App
FacilityFrequency
Fort Smith Ground121.900
Fort Smith Ground275.800
Fort Smith Tower118.300
Fort Smith Tower323.175
Razorback Approach120.900
Razorback Approach343.750

NOTICE

Unauthorized use prohibited. See LiveATC.net Terms of Service


Airport/ARTCC Code
Frequency Search
(e.g., 124.400, 128.75)
Site-wide search
 


Browse Feeds
Top 50 Feeds
HF Oceanic Feeds
Coverage Map
Bad Weather Areas

LiveATC FAQ
Offer LiveATC feed
Contact LiveATC.net
Press Inquiries

LiveATC on iPhone
LiveATC on Android

LiveATC Mobile
(Mobile browser)

ATC Audio Archives
Interesting Recordings

LiveATC Forums


Home Page
About LiveATC.net


Terms of Use
Privacy Policy

AIRMETs/SIGMETs

FAA Airport Status
NAS Status
Arrival Demand


Server Software By:
Icecast.org
Liquidsoap